Time;durP1;ratioP1;P1;durP2;ratioP2;P2;SDS_P1;SDS_P2;PMS_P1;PMS_P2;Temp;Humidity;BMP_temperature;BMP_pressure;BME280_temperature;BME280_humidity;BME280_pressure;Samples;Min_cycle;Max_cycle;Signal;HPM_P1;HPM_P2
2023/03/02 00:03:50;;;;;;;;;;;22.20;84.30;;;;;;1798637;79;20275;-90
2023/03/02 00:06:18;;;;;;;;;;;22.20;84.80;;;;;;1794305;79;20277;-92
2023/03/02 00:08:47;;;;;;;;;;;22.20;84.10;;;;;;1824102;78;20217;-92
2023/03/02 00:11:20;;;;;;;;;;;22.30;84.30;;;;;;1842279;77;20163;-93
2023/03/02 00:13:54;;;;;;;;;;;22.30;84.40;;;;;;1847141;77;20468;-91
2023/03/02 00:16:25;;;;;;;;;;;22.30;83.90;;;;;;1837089;78;20183;-93
2023/03/02 00:19:22;;;;;;;;;;;22.30;83.60;;;;;;1820973;79;20127;-92
2023/03/02 00:21:50;;;;;;;;;;;22.30;83.40;;;;;;1810434;79;20154;-93
2023/03/02 00:27:32;;;;;;;;;;;22.40;83.20;;;;;;1840379;78;20137;-92
2023/03/02 00:42:54;;;;;;;;;;;22.50;82.30;;;;;;1672197;84;20181;-90
2023/03/02 00:45:24;;;;;;;;;;;22.60;81.80;;;;;;1677981;86;20203;-92
2023/03/02 00:47:53;;;;;;;;;;;22.60;81.80;;;;;;1763352;75;20158;-93
2023/03/02 00:50:23;;;;;;;;;;;22.70;81.40;;;;;;1885627;74;20188;-93
2023/03/02 00:52:53;;;;;;;;;;;22.70;81.40;;;;;;1888253;74;20133;-94
2023/03/02 00:55:38;;;;;;;;;;;22.80;81.30;;;;;;1928412;74;20126;-93
2023/03/02 00:58:22;;;;;;;;;;;22.90;81.00;;;;;;1838938;78;20132;-76
2023/03/02 01:04:34;;;;;;;;;;;;;;;;;;;;;
2023/03/02 01:07:01;;;;;;;;;;;22.90;80.30;;;;;;1795233;78;20780;-78
2023/03/02 01:09:32;;;;;;;;;;;23.00;80.30;;;;;;1909803;74;20201;-77
2023/03/02 01:12:02;;;;;;;;;;;23.00;79.90;;;;;;1901724;74;20223;-76
2023/03/02 01:14:32;;;;;;;;;;;23.00;79.80;;;;;;1883251;75;20223;-77
2023/03/02 01:17:02;;;;;;;;;;;23.00;80.00;;;;;;1893318;75;20184;-82
2023/03/02 01:19:33;;;;;;;;;;;23.00;79.90;;;;;;1880911;75;20245;-75
2023/03/02 01:22:04;;;;;;;;;;;23.00;79.90;;;;;;1874456;75;20176;-76
2023/03/02 01:24:34;;;;;;;;;;;23.00;79.80;;;;;;1878441;75;20183;-76
2023/03/02 01:27:04;;;;;;;;;;;23.10;80.30;;;;;;1873521;75;20177;-78
2023/03/02 01:29:34;;;;;;;;;;;23.10;80.20;;;;;;1865348;75;20156;-76
2023/03/02 01:32:07;;;;;;;;;;;23.20;80.30;;;;;;1900301;75;20226;-75
2023/03/02 01:34:37;;;;;;;;;;;23.20;80.20;;;;;;1887553;75;20287;-76
2023/03/02 01:37:07;;;;;;;;;;;23.20;79.70;;;;;;1883467;75;20268;-74
2023/03/02 01:39:37;;;;;;;;;;;23.30;80.20;;;;;;1872434;75;20156;-77
2023/03/02 01:42:08;;;;;;;;;;;23.30;79.80;;;;;;1874089;75;20168;-75
2023/03/02 01:44:46;;;;;;;;;;;23.30;79.50;;;;;;1871056;75;20284;-77
2023/03/02 01:47:24;;;;;;;;;;;23.30;79.30;;;;;;1875466;75;20168;-77
2023/03/02 01:50:09;;;;;;;;;;;23.40;79.60;;;;;;1880819;76;20121;-80
2023/03/02 01:52:39;;;;;;;;;;;23.40;79.50;;;;;;1867537;76;20150;-76
2023/03/02 01:55:10;;;;;;;;;;;23.40;79.20;;;;;;1836326;76;20526;-78
2023/03/02 02:01:32;;;;;;;;;;;23.50;78.80;;;;;;1858133;76;20156;-79
2023/03/02 02:07:18;;;;;;;;;;;23.60;77.70;;;;;;1825709;76;20270;-77
2023/03/02 02:09:53;;;;;;;;;;;23.70;77.30;;;;;;1803773;77;20250;-76
2023/03/02 02:12:24;;;;;;;;;;;23.70;77.50;;;;;;1817230;77;20260;-77
2023/03/02 02:14:59;;;;;;;;;;;23.70;77.60;;;;;;1814093;78;20123;-79
2023/03/02 02:17:25;;;;;;;;;;;23.80;77.60;;;;;;1817047;77;20243;-78
2023/03/02 02:20:06;;;;;;;;;;;23.80;78.10;;;;;;1813490;78;20217;-75
2023/03/02 02:22:37;;;;;;;;;;;23.90;77.00;;;;;;1816204;78;20434;-77
2023/03/02 02:25:08;;;;;;;;;;;24.00;76.50;;;;;;1809928;79;20508;-79
2023/03/02 02:27:39;;;;;;;;;;;24.00;76.30;;;;;;1810154;79;20230;-77
2023/03/02 02:30:10;;;;;;;;;;;24.10;76.20;;;;;;1811468;79;20222;-79
2023/03/02 02:32:40;;;;;;;;;;;24.10;75.10;;;;;;1819944;78;20230;-77
2023/03/02 02:35:11;;;;;;;;;;;24.20;75.30;;;;;;1824770;78;20206;-80
2023/03/02 02:37:43;;;;;;;;;;;24.20;75.10;;;;;;1820393;78;20162;-79
2023/03/02 02:40:15;;;;;;;;;;;24.30;75.30;;;;;;1815374;79;20146;-77
2023/03/02 02:42:46;;;;;;;;;;;24.40;74.80;;;;;;1817229;78;20181;-80
2023/03/02 02:45:20;;;;;;;;;;;24.40;74.90;;;;;;1832214;78;20221;-75
2023/03/02 02:47:50;;;;;;;;;;;24.40;74.40;;;;;;1832042;78;20218;-78
2023/03/02 02:50:21;;;;;;;;;;;24.50;73.80;;;;;;1824163;78;20607;-77
2023/03/02 02:52:53;;;;;;;;;;;24.60;74.10;;;;;;1812775;78;20629;-78
2023/03/02 02:55:27;;;;;;;;;;;24.70;73.70;;;;;;1817920;77;20182;-78
2023/03/02 02:57:59;;;;;;;;;;;24.70;73.50;;;;;;1805219;79;20404;-80
2023/03/02 03:00:29;;;;;;;;;;;24.90;72.50;;;;;;1813907;78;20241;-76
2023/03/02 03:03:00;;;;;;;;;;;24.80;73.10;;;;;;1819781;78;20216;-76
2023/03/02 03:05:30;;;;;;;;;;;25.00;72.60;;;;;;1824004;77;20156;-75
2023/03/02 03:08:07;;;;;;;;;;;25.10;71.90;;;;;;1821260;77;20203;-77
2023/03/02 03:10:38;;;;;;;;;;;25.10;71.70;;;;;;1810743;77;20190;-77
2023/03/02 03:13:12;;;;;;;;;;;25.20;71.60;;;;;;1797211;78;20583;-77
2023/03/02 03:15:42;;;;;;;;;;;25.30;71.50;;;;;;1800341;79;20222;-77
2023/03/02 03:18:12;;;;;;;;;;;25.40;70.60;;;;;;1800852;78;20610;-75
2023/03/02 03:20:44;;;;;;;;;;;25.50;69.40;;;;;;1808448;77;20286;-76
2023/03/02 03:23:14;;;;;;;;;;;25.60;68.90;;;;;;1813655;77;20192;-77
2023/03/02 03:25:44;;;;;;;;;;;25.70;68.90;;;;;;1808297;78;20258;-76
2023/03/02 03:28:14;;;;;;;;;;;25.90;68.30;;;;;;1816378;77;20183;-77
2023/03/02 03:30:44;;;;;;;;;;;25.90;68.10;;;;;;1821260;77;20437;-76
2023/03/02 03:33:20;;;;;;;;;;;26.10;68.80;;;;;;1811966;77;20206;-77
2023/03/02 03:35:49;;;;;;;;;;;26.20;68.40;;;;;;1817692;77;20154;-76
2023/03/02 03:38:20;;;;;;;;;;;26.40;67.30;;;;;;1841918;76;20544;-76
2023/03/02 03:40:50;;;;;;;;;;;26.50;66.70;;;;;;1815600;78;20178;-76
2023/03/02 03:43:20;;;;;;;;;;;26.60;65.00;;;;;;1807916;78;20327;-78
2023/03/02 03:45:50;;;;;;;;;;;26.70;65.90;;;;;;1819823;77;20364;-77
2023/03/02 03:48:20;;;;;;;;;;;26.90;62.80;;;;;;1834840;76;20184;-78
2023/03/02 03:50:50;;;;;;;;;;;27.00;61.00;;;;;;1826857;77;20167;-77
2023/03/02 03:53:20;;;;;;;;;;;27.10;61.50;;;;;;1808587;78;20179;-75
2023/03/02 03:55:50;;;;;;;;;;;27.20;60.10;;;;;;1804486;77;20524;-76
2023/03/02 03:58:20;;;;;;;;;;;27.30;60.00;;;;;;1799919;79;20243;-77
2023/03/02 04:00:51;;;;;;;;;;;27.40;60.60;;;;;;1807291;77;20204;-77
2023/03/02 04:03:21;;;;;;;;;;;27.50;60.30;;;;;;1803331;77;20186;-77
2023/03/02 04:05:51;;;;;;;;;;;27.60;59.70;;;;;;1801878;79;20201;-78
2023/03/02 04:08:21;;;;;;;;;;;27.80;59.50;;;;;;1802865;77;20220;-77
2023/03/02 04:10:52;;;;;;;;;;;27.90;59.20;;;;;;1815212;77;20184;-78
2023/03/02 04:13:22;;;;;;;;;;;28.10;59.00;;;;;;1784924;78;20246;-78
2023/03/02 04:15:52;;;;;;;;;;;28.20;58.50;;;;;;1806148;79;20319;-79
2023/03/02 04:18:23;;;;;;;;;;;28.30;59.30;;;;;;1814153;77;20307;-78
2023/03/02 04:20:53;;;;;;;;;;;28.40;57.70;;;;;;1827546;77;20212;-77
2023/03/02 04:23:23;;;;;;;;;;;28.40;57.40;;;;;;1809234;78;20236;-79
2023/03/02 04:25:53;;;;;;;;;;;28.50;58.40;;;;;;1801991;78;20206;-78
2023/03/02 04:28:23;;;;;;;;;;;28.50;57.20;;;;;;1827826;77;20509;-77
2023/03/02 04:30:53;;;;;;;;;;;28.50;56.60;;;;;;1824292;77;20230;-77
2023/03/02 04:33:23;;;;;;;;;;;28.60;56.60;;;;;;1836372;76;20244;-79
2023/03/02 04:35:54;;;;;;;;;;;28.60;56.30;;;;;;1808170;78;20183;-80
2023/03/02 04:38:28;;;;;;;;;;;28.60;56.20;;;;;;1784786;78;20180;-79
2023/03/02 04:40:58;;;;;;;;;;;28.70;56.70;;;;;;1854799;75;20371;-79
2023/03/02 04:43:31;;;;;;;;;;;28.70;58.10;;;;;;1870069;75;20317;-79
2023/03/02 04:46:01;;;;;;;;;;;28.80;58.10;;;;;;1876487;75;20203;-79
2023/03/02 04:48:31;;;;;;;;;;;29.00;57.60;;;;;;1842306;75;20238;-79
2023/03/02 04:51:01;;;;;;;;;;;29.00;56.10;;;;;;1863368;75;20493;-80
2023/03/02 04:53:31;;;;;;;;;;;29.20;57.10;;;;;;1838024;75;20339;-80
2023/03/02 04:56:01;;;;;;;;;;;29.30;55.40;;;;;;1845641;75;20221;-78
2023/03/02 04:58:31;;;;;;;;;;;29.30;55.40;;;;;;1841985;75;20278;-80
2023/03/02 05:01:03;;;;;;;;;;;29.30;56.40;;;;;;1853493;75;20178;-80
2023/03/02 05:03:44;;;;;;;;;;;29.40;55.20;;;;;;1850493;75;20229;-81
2023/03/02 05:06:14;;;;;;;;;;;29.40;55.10;;;;;;1880395;75;20176;-80
2023/03/02 05:08:45;;;;;;;;;;;29.60;55.40;;;;;;1845766;75;20228;-79
2023/03/02 05:11:21;;;;;;;;;;;29.60;56.20;;;;;;1868267;75;20218;-79
2023/03/02 05:13:47;;;;;;;;;;;29.60;56.70;;;;;;1782186;79;20180;-80
2023/03/02 05:16:17;;;;;;;;;;;29.60;54.00;;;;;;1868080;75;20587;-78
2023/03/02 05:18:47;;;;;;;;;;;29.70;54.40;;;;;;1858526;75;20200;-79
2023/03/02 05:21:18;;;;;;;;;;;29.70;55.80;;;;;;1874175;75;20181;-78
2023/03/02 05:23:49;;;;;;;;;;;29.80;52.90;;;;;;1868172;75;20336;-78
2023/03/02 05:26:20;;;;;;;;;;;29.80;52.60;;;;;;1864264;75;20193;-77
2023/03/02 05:28:50;;;;;;;;;;;29.80;55.20;;;;;;1864258;75;20224;-78
2023/03/02 05:31:22;;;;;;;;;;;29.90;52.60;;;;;;1867226;75;20174;-78
2023/03/02 05:33:52;;;;;;;;;;;29.90;52.30;;;;;;1865329;75;20525;-78
2023/03/02 05:36:22;;;;;;;;;;;30.00;52.70;;;;;;1868330;75;20265;-79
2023/03/02 05:38:52;;;;;;;;;;;30.10;54.30;;;;;;1857636;75;20191;-87
2023/03/02 05:41:22;;;;;;;;;;;30.20;53.20;;;;;;1860921;75;20190;-88
2023/03/02 05:43:53;;;;;;;;;;;30.20;53.60;;;;;;1867262;75;20535;-90
2023/03/02 05:46:23;;;;;;;;;;;30.20;53.40;;;;;;1855486;75;20162;-91
2023/03/02 05:49:18;;;;;;;;;;;30.30;53.20;;;;;;1859617;75;20176;-89
2023/03/02 05:51:51;;;;;;;;;;;30.30;53.80;;;;;;1857632;75;20218;-90
2023/03/02 05:54:21;;;;;;;;;;;30.40;55.00;;;;;;1848962;78;20135;-91
2023/03/02 05:56:53;;;;;;;;;;;30.50;51.80;;;;;;1874222;75;20579;-91
2023/03/02 05:59:24;;;;;;;;;;;30.50;51.30;;;;;;1795202;80;20426;-90
2023/03/02 06:01:58;;;;;;;;;;;30.50;51.30;;;;;;1861730;75;20091;-90
2023/03/02 06:04:27;;;;;;;;;;;30.50;49.40;;;;;;1859566;75;20181;-90
2023/03/02 06:06:56;;;;;;;;;;;30.50;51.60;;;;;;1858633;75;20260;-90
2023/03/02 06:09:26;;;;;;;;;;;30.50;50.80;;;;;;1875449;75;20229;-89
2023/03/02 06:11:56;;;;;;;;;;;30.50;50.60;;;;;;1818275;77;20168;-90
2023/03/02 06:14:26;;;;;;;;;;;30.50;52.60;;;;;;1865505;75;20220;-89
2023/03/02 06:16:56;;;;;;;;;;;30.50;51.70;;;;;;1828125;77;20192;-90
2023/03/02 06:19:26;;;;;;;;;;;30.50;52.80;;;;;;1857968;76;20180;-89
2023/03/02 06:21:57;;;;;;;;;;;30.50;52.70;;;;;;1860460;75;20177;-91
2023/03/02 06:24:27;;;;;;;;;;;30.60;53.60;;;;;;1848329;77;20174;-90
2023/03/02 06:26:56;;;;;;;;;;;30.70;51.20;;;;;;1820345;77;20192;-89
2023/03/02 06:29:26;;;;;;;;;;;30.70;50.20;;;;;;1816877;78;20197;-89
2023/03/02 06:31:56;;;;;;;;;;;30.70;50.50;;;;;;1853832;75;20277;-88
2023/03/02 06:34:28;;;;;;;;;;;30.70;51.20;;;;;;1828396;77;20166;-90
2023/03/02 06:36:57;;;;;;;;;;;30.80;50.50;;;;;;1827725;77;20207;-89
2023/03/02 06:39:27;;;;;;;;;;;30.80;51.20;;;;;;1842144;76;21097;-89
2023/03/02 06:41:58;;;;;;;;;;;30.80;51.20;;;;;;1842416;76;20256;-89
2023/03/02 06:44:29;;;;;;;;;;;30.80;50.00;;;;;;1835816;76;20213;-90
2023/03/02 06:47:01;;;;;;;;;;;30.80;49.80;;;;;;1839598;76;20446;-90
2023/03/02 06:52:41;;;;;;;;;;;30.80;50.30;;;;;;1846839;76;20174;-91
2023/03/02 06:55:11;;;;;;;;;;;30.90;48.60;;;;;;1847150;76;20197;-91
2023/03/02 06:57:40;;;;;;;;;;;30.90;48.20;;;;;;1848381;77;20184;-91
2023/03/02 07:00:15;;;;;;;;;;;31.00;48.70;;;;;;1849536;76;20150;-89
2023/03/02 07:02:48;;;;;;;;;;;31.00;51.70;;;;;;1857064;76;20125;-90
2023/03/02 07:05:17;;;;;;;;;;;31.00;47.50;;;;;;1871618;76;20448;-89
2023/03/02 07:07:53;;;;;;;;;;;31.00;49.70;;;;;;1849291;76;20574;-89
2023/03/02 07:10:18;;;;;;;;;;;31.00;47.80;;;;;;1869170;76;20125;-90
2023/03/02 07:12:49;;;;;;;;;;;31.00;47.20;;;;;;1846839;76;20621;-90
2023/03/02 07:15:39;;;;;;;;;;;31.10;48.80;;;;;;1822934;76;20222;-89
2023/03/02 07:18:09;;;;;;;;;;;31.00;50.10;;;;;;1847413;76;20213;-91
2023/03/02 07:20:39;;;;;;;;;;;31.00;49.40;;;;;;1841222;77;20178;-92
2023/03/02 07:23:09;;;;;;;;;;;31.10;49.30;;;;;;1847336;76;20515;-89
2023/03/02 07:25:39;;;;;;;;;;;31.10;47.60;;;;;;1841811;76;20296;-89
2023/03/02 07:28:09;;;;;;;;;;;31.10;46.60;;;;;;1850700;78;20235;-90
2023/03/02 07:30:39;;;;;;;;;;;31.00;46.70;;;;;;1843140;76;20241;-89
2023/03/02 07:33:09;;;;;;;;;;;31.00;46.60;;;;;;1847321;77;20135;-91
2023/03/02 07:35:38;;;;;;;;;;;31.00;47.70;;;;;;1840769;76;20221;-90
2023/03/02 07:38:08;;;;;;;;;;;31.00;48.40;;;;;;1838329;76;20246;-90
2023/03/02 07:40:42;;;;;;;;;;;31.00;47.10;;;;;;1849202;76;20213;-90
2023/03/02 07:43:12;;;;;;;;;;;31.00;46.90;;;;;;1848317;76;20206;-91
2023/03/02 07:45:42;;;;;;;;;;;31.00;46.30;;;;;;1847339;76;20194;-88
2023/03/02 07:48:12;;;;;;;;;;;31.00;47.50;;;;;;1848690;77;20217;-90
2023/03/02 07:50:42;;;;;;;;;;;30.90;47.80;;;;;;1852600;76;20155;-91
2023/03/02 07:53:15;;;;;;;;;;;30.90;45.70;;;;;;1856246;76;20141;-91
2023/03/02 07:55:47;;;;;;;;;;;30.90;46.80;;;;;;1843920;76;20143;-89
2023/03/02 07:58:17;;;;;;;;;;;30.80;47.00;;;;;;1856229;76;20130;-91
2023/03/02 08:00:53;;;;;;;;;;;30.80;46.20;;;;;;1854489;76;20213;-92
2023/03/02 08:03:38;;;;;;;;;;;30.80;45.80;;;;;;1855234;76;20162;-89
2023/03/02 08:06:11;;;;;;;;;;;30.80;47.80;;;;;;1853454;76;20255;-90
2023/03/02 08:08:41;;;;;;;;;;;30.80;46.40;;;;;;1854236;76;20182;-91
2023/03/02 08:11:12;;;;;;;;;;;30.80;45.90;;;;;;1859102;76;20270;-91
2023/03/02 08:13:45;;;;;;;;;;;30.80;46.20;;;;;;1855951;76;20189;-92
2023/03/02 08:16:30;;;;;;;;;;;30.80;46.30;;;;;;1854992;77;20433;-91
2023/03/02 08:19:19;;;;;;;;;;;30.80;47.70;;;;;;1853426;76;20174;-91
2023/03/02 08:21:49;;;;;;;;;;;30.80;47.40;;;;;;1853876;76;20237;-89
2023/03/02 08:24:19;;;;;;;;;;;30.80;45.70;;;;;;1854678;76;20127;-89
2023/03/02 08:26:51;;;;;;;;;;;30.80;46.60;;;;;;1853811;76;20205;-92
2023/03/02 08:29:22;;;;;;;;;;;30.70;47.10;;;;;;1828949;79;20152;-88
2023/03/02 08:31:52;;;;;;;;;;;30.80;47.10;;;;;;1829147;79;20439;-92
2023/03/02 08:34:23;;;;;;;;;;;30.80;47.60;;;;;;1829050;79;20140;-90
2023/03/02 08:36:54;;;;;;;;;;;30.80;46.50;;;;;;1848352;76;20181;-89
2023/03/02 08:39:24;;;;;;;;;;;30.80;45.60;;;;;;1857375;76;20194;-85
2023/03/02 08:41:56;;;;;;;;;;;30.80;46.00;;;;;;1850507;76;20169;-89
2023/03/02 08:44:25;;;;;;;;;;;30.80;47.50;;;;;;1831989;78;20180;-89
2023/03/02 08:46:58;;;;;;;;;;;30.70;46.70;;;;;;1856887;75;20131;-90
2023/03/02 08:49:30;;;;;;;;;;;30.70;45.90;;;;;;1856808;75;20134;-89
2023/03/02 08:52:09;;;;;;;;;;;30.80;46.20;;;;;;1858685;76;20104;-90
2023/03/02 08:54:58;;;;;;;;;;;30.80;45.70;;;;;;1841339;75;20128;-90
2023/03/02 08:57:36;;;;;;;;;;;30.80;45.10;;;;;;1835533;76;20130;-90
2023/03/02 09:00:27;;;;;;;;;;;30.80;46.20;;;;;;1847087;76;20158;-90
2023/03/02 09:03:01;;;;;;;;;;;30.80;45.80;;;;;;1858044;75;20458;-91
2023/03/02 09:08:39;;;;;;;;;;;30.70;46.60;;;;;;1850586;77;20127;-90
2023/03/02 09:11:13;;;;;;;;;;;30.70;47.10;;;;;;1832815;78;20155;-90
2023/03/02 09:13:43;;;;;;;;;;;30.70;45.20;;;;;;1830713;75;20189;-88
2023/03/02 09:16:26;;;;;;;;;;;30.70;45.00;;;;;;1853533;75;20135;-90
2023/03/02 09:18:57;;;;;;;;;;;30.70;47.30;;;;;;1852398;76;20117;-90
2023/03/02 09:24:36;;;;;;;;;;;30.60;46.00;;;;;;1751519;75;20490;-90
2023/03/02 09:27:08;;;;;;;;;;;30.60;45.50;;;;;;1870926;75;20489;-89
2023/03/02 09:29:37;;;;;;;;;;;30.60;45.80;;;;;;1863144;75;20436;-90
2023/03/02 09:32:10;;;;;;;;;;;30.50;47.80;;;;;;1864558;75;20285;-89
2023/03/02 09:34:45;;;;;;;;;;;30.60;47.90;;;;;;1866087;75;20209;-91
2023/03/02 09:37:15;;;;;;;;;;;30.50;46.00;;;;;;1860626;75;20127;-90
2023/03/02 09:39:52;;;;;;;;;;;30.50;46.20;;;;;;1879322;75;20437;-90
2023/03/02 09:42:44;;;;;;;;;;;30.40;45.90;;;;;;1895992;75;20255;-88
2023/03/02 09:45:21;;;;;;;;;;;30.40;46.30;;;;;;1883157;75;20240;-89
2023/03/02 09:47:53;;;;;;;;;;;30.40;47.00;;;;;;1867157;75;20163;-90
2023/03/02 09:54:01;;;;;;;;;;;30.30;46.10;;;;;;1724781;79;20298;-88
2023/03/02 09:56:33;;;;;;;;;;;30.30;47.10;;;;;;1783920;78;20207;-88
2023/03/02 09:59:07;;;;;;;;;;;30.30;46.20;;;;;;1857495;76;20188;-87
2023/03/02 10:01:47;;;;;;;;;;;30.20;47.70;;;;;;1870534;75;20246;-89
2023/03/02 10:04:45;;;;;;;;;;;30.20;46.00;;;;;;1863482;76;20150;-86
2023/03/02 10:07:18;;;;;;;;;;;30.20;47.00;;;;;;1865821;75;20416;-86
2023/03/02 10:10:08;;;;;;;;;;;30.20;46.90;;;;;;1861632;75;20277;-86
2023/03/02 10:13:07;;;;;;;;;;;30.10;47.30;;;;;;1868921;75;20165;-86
2023/03/02 10:15:56;;;;;;;;;;;30.10;46.70;;;;;;1874410;75;20219;-87
2023/03/02 10:18:30;;;;;;;;;;;30.10;47.30;;;;;;1867813;75;20283;-87
2023/03/02 10:24:22;;;;;;;;;;;30.00;46.70;;;;;;1764053;79;20235;-86
2023/03/02 10:26:55;;;;;;;;;;;29.90;47.70;;;;;;1791279;76;20273;-88
2023/03/02 10:35:19;;;;;;;;;;;29.80;49.00;;;;;;1786428;79;20231;-87
2023/03/02 10:37:54;;;;;;;;;;;29.80;49.30;;;;;;1787147;76;20152;-89
2023/03/02 10:50:09;;;;;;;;;;;29.70;49.20;;;;;;1820275;75;20404;-90
2023/03/02 10:53:02;;;;;;;;;;;29.60;48.90;;;;;;1815284;76;20107;-91
2023/03/02 11:01:38;;;;;;;;;;;29.50;50.00;;;;;;1798718;78;20180;-89
2023/03/02 11:04:07;;;;;;;;;;;29.40;50.20;;;;;;1765827;79;20259;-91
2023/03/02 11:06:46;;;;;;;;;;;29.40;50.40;;;;;;1848545;75;20158;-91
2023/03/02 11:09:28;;;;;;;;;;;29.40;50.70;;;;;;1860581;75;20179;-90
2023/03/02 11:11:59;;;;;;;;;;;29.30;50.90;;;;;;1882924;76;20462;-91
2023/03/02 11:17:31;;;;;;;;;;;29.30;51.10;;;;;;1829044;79;20176;-92
2023/03/02 11:26:17;;;;;;;;;;;29.20;51.70;;;;;;1859653;76;20130;-90
2023/03/02 11:29:12;;;;;;;;;;;29.20;51.80;;;;;;1863558;74;20209;-90
2023/03/02 11:35:29;;;;;;;;;;;29.10;51.80;;;;;;1848560;76;20205;-90
2023/03/02 11:37:56;;;;;;;;;;;29.00;51.90;;;;;;1863763;75;20214;-87
2023/03/02 11:40:37;;;;;;;;;;;29.00;52.20;;;;;;1867552;75;20115;-90
2023/03/02 11:43:13;;;;;;;;;;;28.90;52.00;;;;;;1811320;76;20214;-90
2023/03/02 11:45:49;;;;;;;;;;;28.90;52.10;;;;;;1831274;77;20196;-91
2023/03/02 11:48:22;;;;;;;;;;;28.90;52.40;;;;;;1828046;77;20124;-92
2023/03/02 11:50:58;;;;;;;;;;;28.90;52.40;;;;;;1850983;77;20118;-91
2023/03/02 11:53:30;;;;;;;;;;;28.80;52.50;;;;;;1825893;77;20186;-89
2023/03/02 11:56:00;;;;;;;;;;;28.80;52.60;;;;;;1820876;77;20218;-90
2023/03/02 11:58:31;;;;;;;;;;;28.80;52.70;;;;;;1834416;77;20228;-89
2023/03/02 12:01:01;;;;;;;;;;;28.80;52.80;;;;;;1836155;77;20279;-90
2023/03/02 12:06:53;;;;;;;;;;;28.70;52.80;;;;;;1839078;77;20213;-90
2023/03/02 12:09:24;;;;;;;;;;;28.70;52.80;;;;;;1831468;77;20131;-90
2023/03/02 12:11:55;;;;;;;;;;;28.60;52.80;;;;;;1832286;76;20573;-90
2023/03/02 12:14:27;;;;;;;;;;;28.60;53.00;;;;;;1834237;77;20128;-91
2023/03/02 12:17:07;;;;;;;;;;;28.60;53.00;;;;;;1817804;77;20189;-90
2023/03/02 12:19:41;;;;;;;;;;;28.60;53.00;;;;;;1816164;77;20247;-87
2023/03/02 12:22:26;;;;;;;;;;;28.60;53.10;;;;;;1829681;76;20200;-87
2023/03/02 12:25:10;;;;;;;;;;;28.60;53.20;;;;;;1772829;80;20250;-86
2023/03/02 12:27:45;;;;;;;;;;;28.50;52.90;;;;;;1761618;80;20188;-87
2023/03/02 12:30:25;;;;;;;;;;;28.50;53.00;;;;;;1830344;77;20306;-87
2023/03/02 12:33:06;;;;;;;;;;;28.50;53.10;;;;;;1817777;77;20270;-87
2023/03/02 12:35:37;;;;;;;;;;;28.50;53.10;;;;;;1731936;81;20214;-87
2023/03/02 12:38:30;;;;;;;;;;;28.40;53.20;;;;;;1733842;80;20182;-87
2023/03/02 12:41:18;;;;;;;;;;;28.40;53.20;;;;;;1755456;79;20188;-89
2023/03/02 12:43:50;;;;;;;;;;;28.40;53.20;;;;;;1829441;78;20193;-88
2023/03/02 12:46:29;;;;;;;;;;;28.40;53.30;;;;;;1840424;78;20194;-87
2023/03/02 12:49:19;;;;;;;;;;;28.40;53.30;;;;;;1856448;77;20180;-87
2023/03/02 12:51:53;;;;;;;;;;;28.40;53.50;;;;;;1821470;78;20203;-88
2023/03/02 12:54:24;;;;;;;;;;;28.30;53.50;;;;;;1816275;79;20207;-88
2023/03/02 12:57:05;;;;;;;;;;;28.30;53.60;;;;;;1816758;79;20300;-88
2023/03/02 12:59:54;;;;;;;;;;;28.30;53.70;;;;;;1856107;76;20135;-88
2023/03/02 13:02:28;;;;;;;;;;;28.20;53.70;;;;;;1835651;77;20222;-88
2023/03/02 13:04:59;;;;;;;;;;;28.20;53.90;;;;;;1863552;77;20200;-88
2023/03/02 13:07:30;;;;;;;;;;;28.20;54.00;;;;;;1863703;77;20319;-88
2023/03/02 13:12:53;;;;;;;;;;;28.10;54.30;;;;;;1791694;77;20241;-89
2023/03/02 13:15:23;;;;;;;;;;;28.10;54.80;;;;;;1803700;78;20192;-87
2023/03/02 13:17:54;;;;;;;;;;;28.00;55.00;;;;;;1826692;77;20198;-89
2023/03/02 13:20:28;;;;;;;;;;;28.00;55.10;;;;;;1843519;78;20741;-88
2023/03/02 13:22:58;;;;;;;;;;;28.00;55.30;;;;;;1822475;78;20199;-87
2023/03/02 13:25:39;;;;;;;;;;;27.90;55.60;;;;;;1843637;78;20108;-87
2023/03/02 13:28:09;;;;;;;;;;;27.90;55.70;;;;;;1829424;78;20161;-88
2023/03/02 13:30:46;;;;;;;;;;;27.90;55.70;;;;;;1787818;78;20147;-87
2023/03/02 13:33:15;;;;;;;;;;;27.80;55.80;;;;;;1839276;77;20146;-87
2023/03/02 13:35:46;;;;;;;;;;;27.70;55.70;;;;;;1818463;77;20176;-87
2023/03/02 13:38:20;;;;;;;;;;;27.80;55.80;;;;;;1811854;77;20192;-87
2023/03/02 13:40:51;;;;;;;;;;;27.70;55.80;;;;;;1802848;79;20210;-87
2023/03/02 13:43:25;;;;;;;;;;;27.70;55.70;;;;;;1800068;79;20185;-88
2023/03/02 13:46:02;;;;;;;;;;;27.70;55.70;;;;;;1805581;79;20172;-87
2023/03/02 13:48:32;;;;;;;;;;;27.60;55.60;;;;;;1805001;79;20188;-89
2023/03/02 13:51:18;;;;;;;;;;;27.60;55.60;;;;;;1803530;79;20192;-86
2023/03/02 13:53:57;;;;;;;;;;;27.60;55.30;;;;;;1802547;79;20176;-87
2023/03/02 13:56:31;;;;;;;;;;;27.50;55.20;;;;;;1805201;79;20184;-87
2023/03/02 13:59:02;;;;;;;;;;;27.50;55.60;;;;;;1804919;79;20173;-87
2023/03/02 14:01:32;;;;;;;;;;;27.40;55.00;;;;;;1805509;78;20225;-87
2023/03/02 14:04:02;;;;;;;;;;;27.40;54.80;;;;;;1813916;78;20133;-87
2023/03/02 14:06:31;;;;;;;;;;;27.40;55.00;;;;;;1804300;79;20180;-87
2023/03/02 14:09:02;;;;;;;;;;;27.40;55.00;;;;;;1806284;79;20133;-88
2023/03/02 14:11:34;;;;;;;;;;;27.40;55.00;;;;;;1804855;78;20173;-88
2023/03/02 14:14:05;;;;;;;;;;;27.30;54.90;;;;;;1802372;78;20134;-88
2023/03/02 14:16:36;;;;;;;;;;;27.30;54.80;;;;;;1804024;78;20137;-87
2023/03/02 14:19:06;;;;;;;;;;;27.30;54.80;;;;;;1803673;79;20177;-88
2023/03/02 14:21:35;;;;;;;;;;;27.20;55.00;;;;;;1804085;79;20338;-88
2023/03/02 14:24:08;;;;;;;;;;;27.20;55.00;;;;;;1803508;78;20189;-88
2023/03/02 14:26:42;;;;;;;;;;;27.20;55.10;;;;;;1775989;78;20247;-87
2023/03/02 14:29:22;;;;;;;;;;;27.10;55.20;;;;;;1776669;81;20140;-88
2023/03/02 14:32:39;;;;;;;;;;;;;;;;;;;;;
2023/03/02 14:38:07;;;;;;;;;;;27.10;55.30;;;;;;1681272;83;20225;-88
2023/03/02 14:40:55;;;;;;;;;;;27.00;55.30;;;;;;1700998;79;20244;-89
2023/03/02 14:43:25;;;;;;;;;;;27.00;55.40;;;;;;1781974;79;20454;-87
2023/03/02 14:45:55;;;;;;;;;;;27.00;55.50;;;;;;1803355;78;20225;-86
2023/03/02 14:48:25;;;;;;;;;;;26.90;55.60;;;;;;1798680;79;20275;-88
2023/03/02 14:51:02;;;;;;;;;;;26.90;55.60;;;;;;1787859;78;20192;-88
2023/03/02 14:53:34;;;;;;;;;;;26.90;55.70;;;;;;1807268;78;20156;-87
2023/03/02 14:56:06;;;;;;;;;;;26.80;55.80;;;;;;1803307;78;20278;-87
2023/03/02 14:58:37;;;;;;;;;;;26.80;55.80;;;;;;1829739;77;20453;-87
2023/03/02 15:01:07;;;;;;;;;;;26.80;55.90;;;;;;1797155;78;20196;-90
2023/03/02 15:03:40;;;;;;;;;;;26.70;56.00;;;;;;1801557;78;20799;-87
2023/03/02 15:06:26;;;;;;;;;;;26.70;56.00;;;;;;1830252;78;20297;-87
2023/03/02 15:08:57;;;;;;;;;;;26.70;56.20;;;;;;1820767;78;20504;-87
2023/03/02 15:11:28;;;;;;;;;;;26.60;56.30;;;;;;1801021;78;20491;-87
2023/03/02 15:13:59;;;;;;;;;;;26.60;56.50;;;;;;1807546;78;20206;-87
2023/03/02 15:16:37;;;;;;;;;;;26.50;57.30;;;;;;1824818;77;20615;-88
2023/03/02 15:19:08;;;;;;;;;;;26.50;56.80;;;;;;1844095;77;20158;-87
2023/03/02 15:21:49;;;;;;;;;;;26.40;56.90;;;;;;1844611;77;20253;-88
2023/03/02 15:24:15;;;;;;;;;;;26.40;57.30;;;;;;1792960;79;20131;-88
2023/03/02 15:29:57;;;;;;;;;;;26.40;57.40;;;;;;1758744;82;20160;-87
2023/03/02 15:32:27;;;;;;;;;;;26.30;57.70;;;;;;1760274;81;20614;-88
2023/03/02 15:34:56;;;;;;;;;;;26.30;57.90;;;;;;1780802;80;20638;-88
2023/03/02 15:37:27;;;;;;;;;;;26.30;58.10;;;;;;1794033;78;20254;-88
2023/03/02 15:39:56;;;;;;;;;;;26.20;58.20;;;;;;1797181;78;20240;-87
2023/03/02 15:42:26;;;;;;;;;;;26.20;58.40;;;;;;1789472;78;20812;-87
2023/03/02 15:44:56;;;;;;;;;;;26.20;58.70;;;;;;1791765;79;20219;-88
2023/03/02 15:50:03;;;;;;;;;;;26.10;59.10;;;;;;1786456;79;20316;-87
2023/03/02 15:52:33;;;;;;;;;;;26.00;59.20;;;;;;1803215;79;20193;-86
2023/03/02 15:55:03;;;;;;;;;;;26.00;59.30;;;;;;1775979;80;20186;-87
2023/03/02 15:57:34;;;;;;;;;;;26.00;59.40;;;;;;1787943;79;20190;-87
2023/03/02 16:00:04;;;;;;;;;;;26.00;59.70;;;;;;1793458;79;20693;-88
2023/03/02 16:02:35;;;;;;;;;;;26.00;59.70;;;;;;1781281;79;20176;-87
2023/03/02 16:05:05;;;;;;;;;;;25.90;59.80;;;;;;1793776;78;20562;-87
2023/03/02 16:07:36;;;;;;;;;;;25.90;60.10;;;;;;1797087;78;20387;-88
2023/03/02 16:10:25;;;;;;;;;;;25.90;60.20;;;;;;1815334;78;20158;-86
2023/03/02 16:13:00;;;;;;;;;;;25.80;60.30;;;;;;1816998;78;20194;-89
2023/03/02 16:15:26;;;;;;;;;;;25.80;60.50;;;;;;1785146;78;20195;-87
2023/03/02 16:17:56;;;;;;;;;;;25.80;60.70;;;;;;1815242;78;20129;-87
2023/03/02 16:20:27;;;;;;;;;;;25.70;60.60;;;;;;1805710;79;20158;-87
2023/03/02 16:23:18;;;;;;;;;;;25.70;60.80;;;;;;1766456;79;20243;-88
2023/03/02 16:25:48;;;;;;;;;;;25.60;60.60;;;;;;1806265;79;20550;-88
2023/03/02 16:28:18;;;;;;;;;;;25.60;61.00;;;;;;1808088;79;20199;-87